createdAt,value
2018-12-30T00:00:09.535Z,9.08
2018-12-30T00:02:41.770Z,10.35
2018-12-30T00:05:11.726Z,9.50
2018-12-30T00:07:42.540Z,9.38
2018-12-30T00:10:12.151Z,10.00
2018-12-30T00:16:15.851Z,9.75
2018-12-30T00:18:45.904Z,10.32
2018-12-30T00:21:15.632Z,9.40
2018-12-30T00:23:45.351Z,9.58
2018-12-30T00:26:15.020Z,9.88
2018-12-30T00:28:45.853Z,10.00
2018-12-30T00:31:15.809Z,11.25
2018-12-30T00:33:45.757Z,9.15
2018-12-30T00:36:15.402Z,10.18
2018-12-30T00:38:45.177Z,10.70
2018-12-30T00:41:14.805Z,10.58
2018-12-30T00:43:44.660Z,10.50
2018-12-30T00:46:14.212Z,10.75
2018-12-30T00:48:43.961Z,10.95
2018-12-30T00:51:17.152Z,11.25
2018-12-30T00:53:44.828Z,10.88
2018-12-30T00:56:14.599Z,10.60
2018-12-30T00:58:44.281Z,10.63
2018-12-30T01:01:13.991Z,10.18
2018-12-30T01:03:43.560Z,10.32
2018-12-30T01:06:13.185Z,10.35
2018-12-30T01:08:42.732Z,9.83
2018-12-30T01:11:12.416Z,10.63
2018-12-30T01:13:42.009Z,10.48
2018-12-30T01:16:11.540Z,10.32
2018-12-30T01:18:41.140Z,10.32
2018-12-30T01:21:10.838Z,10.82
2018-12-30T01:23:40.926Z,10.18
2018-12-30T01:26:10.567Z,10.50
2018-12-30T01:28:40.289Z,11.57
2018-12-30T01:31:09.943Z,10.98
2018-12-30T01:33:39.612Z,11.55
2018-12-30T01:36:09.571Z,10.53
2018-12-30T01:38:39.155Z,10.82
2018-12-30T01:41:08.733Z,12.33
2018-12-30T01:43:38.616Z,11.30
2018-12-30T01:46:08.199Z,11.33
2018-12-30T01:48:38.109Z,11.75
2018-12-30T01:51:07.969Z,12.10
2018-12-30T01:53:37.618Z,12.53
2018-12-30T01:56:07.716Z,12.68
2018-12-30T01:58:37.300Z,12.15
2018-12-30T02:01:07.068Z,12.80
2018-12-30T02:03:36.699Z,12.85
2018-12-30T02:06:06.582Z,13.80
2018-12-30T02:08:36.464Z,13.15
2018-12-30T02:11:06.076Z,14.10
2018-12-30T02:13:36.112Z,14.85
2018-12-30T02:16:05.716Z,14.13
2018-12-30T02:18:35.429Z,13.90
2018-12-30T02:21:05.063Z,14.00
2018-12-30T02:23:34.711Z,14.78
2018-12-30T02:26:04.338Z,15.18
2018-12-30T02:28:34.103Z,14.70
2018-12-30T02:31:03.672Z,14.25
2018-12-30T02:33:33.196Z,14.50
2018-12-30T02:36:03.162Z,16.10
2018-12-30T02:39:27.055Z,14.87
2018-12-30T02:41:57.005Z,14.07
2018-12-30T02:44:26.616Z,14.35
2018-12-30T02:46:56.416Z,15.00
2018-12-30T02:49:25.935Z,14.00
2018-12-30T02:51:55.873Z,14.65
2018-12-30T02:54:25.432Z,15.28
2018-12-30T02:56:55.189Z,15.50
2018-12-30T02:59:24.667Z,14.40
2018-12-30T03:01:54.200Z,15.13
2018-12-30T03:04:23.692Z,15.05
2018-12-30T03:06:53.312Z,15.50
2018-12-30T03:09:22.779Z,15.25
2018-12-30T03:11:52.455Z,14.00
2018-12-30T03:14:22.322Z,15.10
2018-12-30T03:16:51.920Z,14.00
2018-12-30T03:19:21.382Z,14.28
2018-12-30T03:21:59.023Z,14.78
2018-12-30T03:24:22.501Z,14.87
2018-12-30T03:26:52.069Z,13.90
2018-12-30T03:29:21.647Z,13.88
2018-12-30T03:31:51.160Z,14.43
2018-12-30T03:34:20.633Z,14.73
2018-12-30T03:36:50.207Z,14.63
2018-12-30T03:39:19.755Z,14.68
2018-12-30T03:41:49.973Z,14.45
2018-12-30T03:44:19.539Z,14.73
2018-12-30T03:46:49.238Z,15.15
2018-12-30T03:49:18.767Z,14.30
2018-12-30T03:51:48.249Z,14.50
2018-12-30T03:54:18.158Z,15.13
2018-12-30T03:56:47.703Z,15.05
2018-12-30T03:59:17.365Z,14.60
2018-12-30T04:01:47.002Z,14.85
2018-12-30T04:04:16.648Z,14.87
2018-12-30T04:06:46.264Z,14.53
2018-12-30T04:09:16.075Z,14.70
2018-12-30T04:11:45.677Z,14.45
2018-12-30T04:14:15.265Z,14.43
2018-12-30T04:16:44.946Z,15.05
2018-12-30T04:19:14.421Z,15.43
2018-12-30T04:21:43.953Z,15.20
2018-12-30T04:24:13.675Z,14.45
2018-12-30T04:26:43.136Z,14.25
2018-12-30T04:29:12.842Z,14.15
2018-12-30T04:31:42.325Z,14.00
2018-12-30T04:34:11.838Z,14.80
2018-12-30T04:36:41.729Z,14.00
2018-12-30T04:39:11.200Z,13.60
2018-12-30T04:41:41.049Z,13.78
2018-12-30T04:44:10.579Z,13.75
2018-12-30T04:46:40.199Z,14.35
2018-12-30T04:49:09.729Z,14.40
2018-12-30T04:51:39.185Z,14.85
2018-12-30T04:54:08.809Z,16.10
2018-12-30T04:56:38.353Z,14.90
2018-12-30T04:59:07.869Z,15.13
2018-12-30T05:01:37.693Z,14.63
2018-12-30T05:04:07.333Z,14.33
2018-12-30T05:06:37.258Z,13.90
2018-12-30T05:09:08.258Z,15.10
2018-12-30T05:11:37.922Z,16.02
2018-12-30T05:14:26.221Z,15.28
2018-12-30T05:16:55.796Z,15.53
2018-12-30T05:19:25.428Z,14.55
2018-12-30T05:21:55.364Z,14.65
2018-12-30T05:24:25.234Z,14.90
2018-12-30T05:26:54.892Z,14.90
2018-12-30T05:29:24.544Z,14.73
2018-12-30T05:31:54.115Z,15.75
2018-12-30T05:34:23.933Z,15.35
2018-12-30T05:36:53.441Z,15.98
2018-12-30T05:39:23.143Z,15.88
2018-12-30T05:41:52.753Z,15.63
2018-12-30T05:44:22.477Z,15.88
2018-12-30T05:46:51.993Z,15.32
2018-12-30T05:49:21.463Z,15.45
2018-12-30T05:51:50.984Z,13.60
2018-12-30T05:54:20.559Z,15.08
2018-12-30T05:56:50.094Z,15.72
2018-12-30T05:59:19.718Z,16.10
2018-12-30T06:01:49.299Z,14.80
2018-12-30T06:04:18.775Z,15.35
2018-12-30T06:06:48.811Z,15.78
2018-12-30T06:09:18.368Z,15.05
2018-12-30T06:11:47.991Z,15.85
2018-12-30T06:14:35.259Z,15.70
2018-12-30T06:17:05.117Z,15.45
2018-12-30T06:19:34.563Z,16.48
2018-12-30T06:22:04.161Z,15.83
2018-12-30T06:24:33.591Z,15.72
2018-12-30T06:27:03.068Z,16.60
2018-12-30T06:29:32.523Z,16.23
2018-12-30T06:32:02.331Z,16.32
2018-12-30T06:34:31.784Z,15.35
2018-12-30T06:37:01.603Z,16.27
2018-12-30T06:39:31.113Z,15.60
2018-12-30T06:42:00.823Z,17.00
2018-12-30T06:44:30.359Z,18.05
2018-12-30T06:46:59.879Z,15.35
2018-12-30T06:49:29.378Z,16.52
2018-12-30T06:51:59.088Z,15.70
2018-12-30T06:54:28.680Z,16.55
2018-12-30T06:56:58.888Z,16.37
2018-12-30T06:59:28.520Z,16.25
2018-12-30T07:02:05.991Z,15.03
2018-12-30T07:04:35.579Z,15.98
2018-12-30T07:07:14.414Z,15.65
2018-12-30T07:09:44.059Z,15.20
2018-12-30T07:12:13.527Z,20.68
2018-12-30T07:15:19.178Z,17.23
2018-12-30T07:17:48.807Z,14.65
2018-12-30T07:20:18.291Z,15.85
2018-12-30T07:22:47.807Z,16.40
2018-12-30T07:25:17.411Z,16.30
2018-12-30T07:27:46.851Z,15.83
2018-12-30T07:30:16.340Z,17.15
2018-12-30T07:32:45.954Z,16.30
2018-12-30T07:35:15.415Z,17.30
2018-12-30T07:37:44.852Z,16.50
2018-12-30T07:40:14.323Z,16.23
2018-12-30T07:42:43.916Z,15.68
2018-12-30T07:45:13.344Z,15.80
2018-12-30T07:47:42.859Z,16.48
2018-12-30T07:50:12.503Z,15.23
2018-12-30T07:52:41.993Z,15.30
2018-12-30T07:55:11.469Z,18.60
2018-12-30T07:57:41.043Z,17.10
2018-12-30T08:00:10.611Z,16.82
2018-12-30T08:02:41.172Z,16.27
2018-12-30T08:05:10.753Z,14.95
2018-12-30T08:07:41.384Z,14.68
2018-12-30T08:10:10.984Z,13.78
2018-12-30T08:12:40.507Z,14.95
2018-12-30T08:15:09.919Z,15.18
2018-12-30T08:17:39.593Z,17.87
2018-12-30T08:20:09.104Z,14.20
2018-12-30T08:23:33.457Z,15.80
2018-12-30T08:26:03.138Z,14.90
2018-12-30T08:28:32.666Z,15.20
2018-12-30T08:31:02.493Z,14.93
2018-12-30T08:33:31.991Z,15.43
2018-12-30T08:36:01.475Z,14.80
2018-12-30T08:38:31.070Z,15.05
2018-12-30T08:41:02.184Z,15.35
2018-12-30T08:43:31.899Z,14.07
2018-12-30T08:46:01.603Z,15.13
2018-12-30T08:48:31.112Z,13.70
2018-12-30T08:51:00.636Z,13.40
2018-12-30T08:53:30.325Z,14.60
2018-12-30T08:55:59.844Z,14.20
2018-12-30T09:02:22.170Z,14.05
2018-12-30T09:04:51.757Z,13.68
2018-12-30T09:07:21.395Z,12.85
2018-12-30T09:09:50.865Z,13.30
2018-12-30T09:12:20.401Z,12.50
2018-12-30T09:14:49.932Z,13.10
2018-12-30T09:17:19.458Z,13.60
2018-12-30T09:19:49.315Z,13.40
2018-12-30T09:22:18.802Z,13.05
2018-12-30T09:24:48.328Z,11.88
2018-12-30T09:27:17.990Z,12.07
2018-12-30T09:29:47.503Z,12.20
2018-12-30T09:32:17.437Z,12.30
2018-12-30T09:34:46.935Z,11.97
2018-12-30T09:37:16.631Z,12.03
2018-12-30T09:39:46.212Z,12.25
2018-12-30T09:42:15.735Z,13.78
2018-12-30T09:44:45.655Z,12.13
2018-12-30T09:47:15.247Z,12.60
2018-12-30T09:49:44.970Z,12.33
2018-12-30T09:52:14.489Z,11.75
2018-12-30T09:54:44.423Z,10.93
2018-12-30T09:57:14.324Z,10.98
2018-12-30T09:59:43.802Z,10.82
2018-12-30T10:02:13.401Z,10.32
2018-12-30T10:04:43.386Z,10.75
2018-12-30T10:07:13.016Z,11.53
2018-12-30T10:09:42.630Z,10.65
2018-12-30T10:12:12.159Z,10.88
2018-12-30T10:14:42.049Z,9.98
2018-12-30T10:17:11.626Z,10.13
2018-12-30T10:19:41.355Z,10.20
2018-12-30T10:22:11.396Z,9.95
2018-12-30T10:24:41.010Z,10.35
2018-12-30T10:27:10.686Z,10.10
2018-12-30T10:29:40.310Z,9.43
2018-12-30T10:32:10.019Z,10.20
2018-12-30T10:34:57.636Z,10.00
2018-12-30T10:37:27.718Z,9.28
2018-12-30T10:39:57.515Z,8.65
2018-12-30T10:43:02.919Z,9.93
2018-12-30T10:45:32.507Z,9.40
2018-12-30T10:48:02.510Z,9.10
2018-12-30T10:50:32.421Z,8.75
2018-12-30T10:53:02.048Z,8.45
2018-12-30T10:55:32.126Z,9.10
2018-12-30T10:58:18.863Z,9.68
2018-12-30T11:03:40.135Z,9.33
2018-12-30T11:06:09.907Z,8.60
2018-12-30T11:08:39.642Z,8.45
2018-12-30T11:11:09.368Z,9.03
2018-12-30T11:13:39.084Z,9.70
2018-12-30T11:16:08.843Z,9.15
2018-12-30T11:18:38.626Z,9.50
2018-12-30T11:21:10.343Z,9.80
2018-12-30T11:23:40.324Z,9.35
2018-12-30T11:26:09.945Z,10.15
2018-12-30T11:28:39.639Z,9.90
2018-12-30T11:31:09.204Z,9.30
2018-12-30T11:33:38.962Z,10.00
2018-12-30T11:36:10.641Z,10.93
2018-12-30T11:38:40.290Z,10.90
2018-12-30T11:41:09.999Z,9.90
2018-12-30T11:43:39.953Z,9.33
2018-12-30T11:46:09.656Z,10.25
2018-12-30T11:48:39.301Z,10.23
2018-12-30T11:51:09.058Z,9.85
2018-12-30T11:53:38.890Z,10.35
2018-12-30T11:56:08.696Z,10.13
2018-12-30T11:58:38.241Z,10.98
2018-12-30T12:01:08.011Z,9.60
2018-12-30T12:03:37.559Z,9.98
2018-12-30T12:06:07.098Z,10.70
2018-12-30T12:08:36.876Z,10.40
2018-12-30T12:11:06.494Z,10.45
2018-12-30T12:13:36.294Z,11.50
2018-12-30T12:16:05.768Z,10.65
2018-12-30T12:18:35.278Z,11.48
2018-12-30T12:21:04.962Z,10.90
2018-12-30T12:23:34.483Z,10.58
2018-12-30T12:26:04.152Z,10.82
2018-12-30T12:28:34.633Z,10.45
2018-12-30T12:31:04.158Z,10.90
2018-12-30T12:33:34.009Z,10.40
2018-12-30T12:36:03.553Z,11.03
2018-12-30T12:38:33.022Z,10.25
2018-12-30T12:41:02.700Z,10.70
2018-12-30T12:43:32.297Z,10.38
2018-12-30T12:46:02.276Z,9.50
2018-12-30T12:48:31.742Z,10.13
2018-12-30T12:51:01.304Z,9.70
2018-12-30T12:53:30.824Z,9.85
2018-12-30T12:56:00.680Z,10.05
2018-12-30T12:58:30.187Z,9.50
2018-12-30T13:00:59.695Z,10.03
2018-12-30T13:03:29.735Z,9.10
2018-12-30T13:05:59.330Z,10.35
2018-12-30T13:08:29.131Z,10.03
2018-12-30T13:10:58.719Z,9.20
2018-12-30T13:13:28.448Z,9.60
2018-12-30T13:16:03.287Z,8.68
2018-12-30T13:18:29.544Z,9.10
2018-12-30T13:20:59.121Z,9.25
2018-12-30T13:23:28.885Z,9.00
2018-12-30T13:25:58.446Z,8.45
2018-12-30T13:28:28.029Z,10.58
2018-12-30T13:30:57.588Z,8.20
2018-12-30T13:33:27.143Z,9.93
2018-12-30T13:35:56.624Z,10.60
2018-12-30T13:38:28.457Z,8.83
2018-12-30T13:40:57.525Z,9.10
2018-12-30T13:43:27.073Z,7.58
2018-12-30T13:45:56.551Z,9.50
2018-12-30T13:48:26.186Z,8.83
2018-12-30T13:50:55.623Z,8.83
2018-12-30T13:53:25.202Z,10.48
2018-12-30T13:55:54.882Z,9.13
2018-12-30T13:59:00.295Z,9.33
2018-12-30T14:01:29.932Z,10.98
2018-12-30T14:03:59.577Z,10.00
2018-12-30T14:06:29.132Z,9.03
2018-12-30T14:08:58.676Z,9.05
2018-12-30T14:11:28.275Z,9.40
2018-12-30T14:13:57.813Z,10.35
2018-12-30T14:16:27.432Z,9.60
2018-12-30T14:18:57.145Z,9.70
2018-12-30T14:21:27.150Z,9.73
2018-12-30T14:23:56.809Z,9.75
2018-12-30T14:26:26.533Z,9.28
2018-12-30T14:28:56.144Z,9.03
2018-12-30T14:31:43.706Z,9.80
2018-12-30T14:34:13.258Z,8.95
2018-12-30T14:36:42.943Z,9.73
2018-12-30T14:39:12.593Z,9.60
2018-12-30T14:41:42.285Z,8.83
2018-12-30T14:44:11.865Z,9.00
2018-12-30T14:46:41.872Z,9.60
2018-12-30T14:49:11.436Z,9.33
2018-12-30T14:51:41.180Z,10.10
2018-12-30T14:54:10.792Z,9.78
2018-12-30T14:56:40.628Z,9.63
2018-12-30T14:59:10.349Z,9.10
2018-12-30T15:01:39.991Z,9.40
2018-12-30T15:04:09.583Z,8.88
2018-12-30T15:06:39.261Z,9.25
2018-12-30T15:09:09.583Z,10.30
2018-12-30T15:11:39.072Z,10.00
2018-12-30T15:14:08.788Z,10.70
2018-12-30T15:16:38.376Z,10.30
2018-12-30T15:19:07.984Z,10.68
2018-12-30T15:21:39.551Z,10.15
2018-12-30T15:24:09.267Z,11.50
2018-12-30T15:26:38.987Z,10.50
2018-12-30T15:29:26.669Z,10.18
2018-12-30T15:32:14.498Z,11.95
2018-12-30T15:34:44.161Z,11.68
2018-12-30T15:37:15.969Z,11.57
2018-12-30T15:39:45.950Z,10.70
2018-12-30T15:42:18.966Z,10.70
2018-12-30T15:44:46.806Z,9.95
2018-12-30T15:47:16.441Z,10.82
2018-12-30T15:49:46.019Z,11.00
2018-12-30T15:52:15.596Z,11.18
2018-12-30T15:54:45.282Z,11.85
2018-12-30T15:57:14.768Z,11.05
2018-12-30T15:59:44.423Z,11.50
2018-12-30T16:02:13.987Z,10.55
2018-12-30T16:04:43.550Z,11.48
2018-12-30T16:07:13.422Z,39.83
2018-12-30T16:10:18.892Z,10.18
2018-12-30T16:12:48.475Z,10.70
2018-12-30T16:15:18.044Z,10.80
2018-12-30T16:17:47.625Z,10.48
2018-12-30T16:20:17.592Z,11.10
2018-12-30T16:22:47.090Z,10.90
2018-12-30T16:26:29.588Z,9.83
2018-12-30T16:27:50.011Z,11.73
2018-12-30T16:30:19.661Z,11.53
2018-12-30T16:32:49.443Z,10.50
2018-12-30T16:35:19.025Z,10.98
2018-12-30T16:37:49.533Z,10.80
2018-12-30T16:40:19.273Z,11.10
2018-12-30T16:42:49.099Z,11.10
2018-12-30T16:45:18.626Z,10.50
2018-12-30T16:47:48.172Z,10.85
2018-12-30T16:50:17.898Z,10.20
2018-12-30T16:52:47.545Z,10.30
2018-12-30T16:55:18.252Z,10.53
2018-12-30T16:57:47.860Z,10.60
2018-12-30T17:00:17.780Z,10.90
2018-12-30T17:02:47.366Z,10.98
2018-12-30T17:05:17.111Z,10.00
2018-12-30T17:07:46.623Z,9.15
2018-12-30T17:10:17.872Z,9.50
2018-12-30T17:12:47.685Z,10.93
2018-12-30T17:15:17.265Z,10.80
2018-12-30T17:17:47.157Z,10.90
2018-12-30T17:20:16.746Z,10.43
2018-12-30T17:22:46.479Z,10.68
2018-12-30T17:25:16.045Z,10.95
2018-12-30T17:27:45.748Z,11.50
2018-12-30T17:30:15.329Z,10.60
2018-12-30T17:32:45.180Z,11.40
2018-12-30T17:35:14.672Z,10.45
2018-12-30T17:37:44.248Z,10.70
2018-12-30T17:40:14.014Z,10.85
2018-12-30T17:42:43.539Z,10.75
2018-12-30T17:45:13.044Z,10.13
2018-12-30T17:47:42.677Z,9.60
2018-12-30T17:50:12.219Z,10.15
2018-12-30T17:52:41.719Z,10.60
2018-12-30T17:55:11.414Z,10.50
2018-12-30T17:57:40.970Z,9.20
2018-12-30T18:00:23.083Z,9.38
2018-12-30T18:02:43.936Z,9.30
2018-12-30T18:05:13.560Z,8.88
2018-12-30T18:07:43.222Z,9.38
2018-12-30T18:10:12.827Z,9.40
2018-12-30T18:12:42.559Z,9.58
2018-12-30T18:15:12.062Z,9.00
2018-12-30T18:17:41.893Z,8.98
2018-12-30T18:20:11.780Z,9.10
2018-12-30T18:22:42.576Z,8.73
2018-12-30T18:25:12.137Z,8.90
2018-12-30T18:27:41.906Z,9.50
2018-12-30T18:30:11.657Z,9.75
2018-12-30T18:32:41.396Z,10.38
2018-12-30T18:35:11.063Z,10.28
2018-12-30T18:37:40.737Z,10.63
2018-12-30T18:40:10.472Z,10.10
2018-12-30T18:42:40.164Z,10.20
2018-12-30T18:45:09.837Z,10.78
2018-12-30T18:47:39.570Z,10.63
2018-12-30T18:50:09.670Z,11.35
2018-12-30T18:52:39.230Z,11.83
2018-12-30T18:55:08.834Z,12.00
2018-12-30T18:57:38.478Z,11.40
2018-12-30T19:00:10.094Z,11.60
2018-12-30T19:02:39.898Z,11.33
2018-12-30T19:05:09.833Z,11.68
2018-12-30T19:07:39.499Z,12.10
2018-12-30T19:10:09.501Z,11.70
2018-12-30T19:12:39.163Z,11.88
2018-12-30T19:15:08.877Z,11.80
2018-12-30T19:17:40.564Z,10.80
2018-12-30T19:20:10.270Z,9.93
2018-12-30T19:22:40.183Z,9.58
2018-12-30T19:25:12.504Z,9.65
2018-12-30T19:27:42.163Z,10.65
2018-12-30T19:30:12.406Z,11.50
2018-12-30T19:32:42.102Z,10.38
2018-12-30T19:35:11.807Z,9.50
2018-12-30T19:37:41.488Z,11.35
2018-12-30T19:40:11.903Z,10.85
2018-12-30T19:42:41.741Z,9.98
2018-12-30T19:45:11.309Z,9.75
2018-12-30T19:47:40.949Z,10.93
2018-12-30T19:50:10.775Z,10.25
2018-12-30T19:52:40.528Z,9.75
2018-12-30T19:55:10.151Z,9.53
2018-12-30T19:57:39.795Z,9.10
2018-12-30T20:00:11.407Z,9.20
2018-12-30T20:02:41.079Z,9.95
2018-12-30T20:05:10.927Z,9.60
2018-12-30T20:07:41.094Z,9.65
2018-12-30T20:10:10.677Z,9.35
2018-12-30T20:12:40.533Z,9.83
2018-12-30T20:15:10.217Z,10.00
2018-12-30T20:17:39.830Z,9.70
2018-12-30T20:20:09.408Z,10.25
2018-12-30T20:23:14.782Z,10.03
2018-12-30T20:25:44.514Z,10.55
2018-12-30T20:28:14.190Z,9.90
2018-12-30T20:30:43.929Z,9.28
2018-12-30T20:33:13.536Z,9.70
2018-12-30T20:35:45.239Z,10.40
2018-12-30T20:38:14.933Z,9.58
2018-12-30T20:40:44.801Z,10.45
2018-12-30T20:43:14.515Z,10.45
2018-12-30T20:45:44.183Z,12.45
2018-12-30T20:48:13.902Z,12.10
2018-12-30T20:50:43.618Z,12.60
2018-12-30T20:53:13.221Z,13.05
2018-12-30T20:55:43.691Z,14.25
2018-12-30T20:58:13.297Z,12.88
2018-12-30T21:00:43.074Z,14.28
2018-12-30T21:03:12.734Z,13.40
2018-12-30T21:05:42.406Z,13.13
2018-12-30T21:08:12.276Z,13.93
2018-12-30T21:10:42.064Z,13.05
2018-12-30T21:13:11.735Z,14.50
2018-12-30T21:15:41.372Z,13.98
2018-12-30T21:18:11.022Z,14.55
2018-12-30T21:20:40.806Z,14.00
2018-12-30T21:23:10.503Z,15.00
2018-12-30T21:25:40.538Z,14.55
2018-12-30T21:28:10.197Z,13.65
2018-12-30T21:30:39.889Z,13.13
2018-12-30T21:33:09.561Z,14.70
2018-12-30T21:35:39.626Z,12.60
2018-12-30T21:38:09.211Z,13.55
2018-12-30T21:40:38.911Z,12.80
2018-12-30T21:43:08.593Z,13.60
2018-12-30T21:45:38.363Z,13.95
2018-12-30T21:48:08.072Z,14.70
2018-12-30T21:50:37.674Z,13.68
2018-12-30T21:53:07.392Z,14.63
2018-12-30T21:55:37.125Z,14.38
2018-12-30T21:58:06.730Z,15.25
2018-12-30T22:00:36.498Z,14.68
2018-12-30T22:03:06.070Z,14.53
2018-12-30T22:05:37.204Z,15.30
2018-12-30T22:08:06.984Z,15.88
2018-12-30T22:10:36.801Z,17.05
2018-12-30T22:13:06.685Z,16.32
2018-12-30T22:15:36.550Z,14.53
2018-12-30T22:18:06.232Z,14.68
2018-12-30T22:20:35.992Z,14.80
2018-12-30T22:23:10.661Z,14.60
2018-12-30T22:25:42.186Z,17.12
2018-12-30T22:28:13.822Z,14.95
2018-12-30T22:30:43.660Z,15.30
2018-12-30T22:33:13.323Z,15.40
2018-12-30T22:35:45.411Z,13.55
2018-12-30T22:38:15.326Z,14.75
2018-12-30T22:40:45.044Z,14.80
2018-12-30T22:43:14.978Z,14.95
2018-12-30T22:45:44.799Z,14.03
2018-12-30T22:48:14.495Z,14.03
2018-12-30T22:50:44.295Z,12.50
2018-12-30T22:53:14.019Z,13.00
2018-12-30T22:55:43.725Z,12.20
2018-12-30T22:58:13.400Z,12.47
2018-12-30T23:01:02.088Z,12.73
2018-12-30T23:03:31.835Z,10.88
2018-12-30T23:06:01.552Z,10.98
2018-12-30T23:08:31.370Z,10.78
2018-12-30T23:11:04.773Z,12.85
2018-12-30T23:13:34.686Z,11.22
2018-12-30T23:16:04.273Z,11.05
2018-12-30T23:18:33.911Z,10.45
2018-12-30T23:21:03.661Z,10.60
2018-12-30T23:23:33.461Z,10.55
2018-12-30T23:26:03.113Z,10.40
2018-12-30T23:28:34.012Z,10.80
2018-12-30T23:31:05.109Z,10.35
2018-12-30T23:33:34.909Z,9.65
2018-12-30T23:36:04.500Z,11.38
2018-12-30T23:38:34.287Z,10.60
2018-12-30T23:41:03.862Z,10.50
2018-12-30T23:43:33.547Z,10.10
2018-12-30T23:46:03.237Z,10.00
2018-12-30T23:48:32.965Z,13.22
2018-12-30T23:51:02.676Z,9.98
2018-12-30T23:53:32.226Z,10.35
2018-12-30T23:56:02.101Z,10.82
2018-12-30T23:58:32.020Z,10.65
